Time;durP1;ratioP1;P1;durP2;ratioP2;P2;SDS_P1;SDS_P2;PMS_P1;PMS_P2;Temp;Humidity;BMP_temperature;BMP_pressure;BME280_temperature;BME280_humidity;BME280_pressure;Samples;Min_cycle;Max_cycle;Signal;HPM_P1;HPM_P2
2021/11/11 00:00:11;;;;;;;12.80;11.53;;;;;;;20.68;52.88;98042.69;4949955;29;20228;-67
2021/11/11 00:02:39;;;;;;;13.83;12.37;;;;;;;20.73;52.75;98035.22;4932387;29;20220;-67
2021/11/11 00:05:06;;;;;;;12.90;11.60;;;;;;;20.25;52.76;97962.59;4951869;28;20216;-66
2021/11/11 00:07:33;;;;;;;14.63;13.13;;;;;;;19.96;52.48;97905.22;4967481;28;20247;-66
2021/11/11 00:10:00;;;;;;;13.63;12.23;;;;;;;20.61;52.79;98016.84;4952104;28;20640;-71
2021/11/11 00:12:31;;;;;;;13.10;11.70;;;;;;;20.72;52.56;98023.28;4947456;28;20235;-67
2021/11/11 00:14:59;;;;;;;13.47;11.90;;;;;;;20.72;52.64;98023.28;4965941;28;20251;-72
2021/11/11 00:17:25;;;;;;;15.03;11.90;;;;;;;20.59;52.40;98004.00;4946178;28;20224;-67
2021/11/11 00:19:52;;;;;;;13.63;12.23;;;;;;;20.71;52.45;98022.38;4967656;28;20243;-71
2021/11/11 00:22:19;;;;;;;12.87;11.57;;;;;;;20.52;52.31;97984.13;4962611;28;20256;-67
2021/11/11 00:24:45;;;;;;;13.33;11.93;;;;;;;20.71;52.47;98016.41;4950538;29;20879;-67
2021/11/11 00:27:12;;;;;;;13.63;12.10;;;;;;;20.71;52.42;98017.28;4952369;29;20251;-67
2021/11/11 00:29:39;;;;;;;12.87;11.57;;;;;;;20.71;52.57;98009.63;4965547;28;20908;-66
2021/11/11 00:32:06;;;;;;;13.57;12.17;;;;;;;20.69;52.58;98011.22;4951011;29;20200;-67
2021/11/11 00:34:33;;;;;;;13.40;12.00;;;;;;;19.92;52.17;97874.41;4955039;28;20661;-69
2021/11/11 00:37:00;;;;;;;13.10;11.80;;;;;;;20.53;52.68;97979.91;4954518;29;20211;-67
2021/11/11 00:39:26;;;;;;;12.27;11.07;;;;;;;20.41;52.63;97952.22;4954787;29;20227;-67
2021/11/11 00:41:53;;;;;;;11.70;10.50;;;;;;;20.70;52.73;97997.66;4955554;29;20560;-67
2021/11/11 00:44:19;;;;;;;12.40;11.07;;;;;;;20.71;52.58;98007.06;4953667;29;20292;-66
2021/11/11 00:46:46;;;;;;;12.90;11.27;;;;;;;20.70;52.71;98005.31;4964788;28;20204;-72
2021/11/11 00:49:13;;;;;;;13.33;11.50;;;;;;;20.70;52.43;98009.56;4939358;29;20252;-67
2021/11/11 00:51:39;;;;;;;12.33;11.10;;;;;;;20.57;52.37;97981.78;4955685;28;20223;-67
2021/11/11 00:54:06;;;;;;;12.70;11.37;;;;;;;20.56;52.35;97993.69;4969437;28;20220;-67
2021/11/11 00:56:33;;;;;;;14.50;11.93;;;;;;;20.16;52.35;97917.97;4954029;28;20224;-67
2021/11/11 00:59:00;;;;;;;13.00;11.60;;;;;;;20.54;52.23;97984.22;4955492;28;20258;-66
2021/11/11 01:01:30;;;;;;;12.87;11.57;;;;;;;20.64;52.08;97997.41;4952925;28;20729;-72
2021/11/11 01:03:58;;;;;;;13.00;11.70;;;;;;;20.69;51.96;98002.72;4954724;28;20725;-67
2021/11/11 01:06:26;;;;;;;12.83;11.53;;;;;;;20.63;52.05;98000.75;4962751;28;20235;-67
2021/11/11 01:08:53;;;;;;;12.53;11.23;;;;;;;19.79;52.08;97859.44;4965645;28;20240;-67
2021/11/11 01:11:20;;;;;;;11.60;10.40;;;;;;;20.39;52.16;97956.38;4969923;28;20200;-68
2021/11/11 01:13:46;;;;;;;12.37;11.17;;;;;;;20.66;52.15;98000.88;4946557;29;20296;-67
2021/11/11 01:16:13;;;;;;;13.30;11.90;;;;;;;20.42;52.28;97959.03;4953941;28;20224;-66
2021/11/11 01:18:39;;;;;;;12.60;11.30;;;;;;;20.69;52.29;97997.59;4952298;29;20229;-67
2021/11/11 01:21:07;;;;;;;12.13;10.80;;;;;;;20.69;52.32;97995.06;4955289;28;20270;-68
2021/11/11 01:23:33;;;;;;;11.93;10.73;;;;;;;19.92;52.49;97859.09;4954390;28;20319;-67
2021/11/11 01:26:00;;;;;;;12.57;11.27;;;;;;;20.68;52.57;97998.38;4969325;28;20288;-68
2021/11/11 01:28:27;;;;;;;11.93;10.73;;;;;;;20.59;52.50;97987.81;4954976;28;20228;-68
2021/11/11 01:30:53;;;;;;;11.30;10.20;;;;;;;20.63;52.44;98003.31;4952961;29;20232;-67
2021/11/11 01:33:20;;;;;;;12.17;10.97;;;;;;;20.67;52.14;98010.31;4937307;29;20200;-66
2021/11/11 01:35:46;;;;;;;11.83;10.53;;;;;;;20.68;52.05;98018.81;4954325;28;20614;-65
2021/11/11 01:38:13;;;;;;;10.57;9.57;;;;;;;20.68;52.07;98016.28;4969564;28;20741;-68
2021/11/11 01:40:40;;;;;;;10.83;9.47;;;;;;;20.65;52.00;98011.91;4953747;28;20196;-66
2021/11/11 01:43:07;;;;;;;11.97;10.77;;;;;;;20.66;51.93;97998.34;4952673;29;20243;-66
2021/11/11 01:45:36;;;;;;;11.10;10.00;;;;;;;20.58;51.68;97979.28;4953002;29;20320;-66
2021/11/11 01:48:03;;;;;;;10.97;9.90;;;;;;;20.66;51.74;97995.78;4967705;28;20320;-66
2021/11/11 01:50:30;;;;;;;11.20;10.00;;;;;;;20.66;51.80;97985.56;4954176;28;20196;-69
2021/11/11 01:52:58;;;;;;;11.40;10.20;;;;;;;20.56;51.96;97957.94;4951344;28;20247;-66
2021/11/11 01:55:25;;;;;;;11.17;10.07;;;;;;;20.42;51.79;97933.50;4952650;29;20235;-67
2021/11/11 01:57:51;;;;;;;10.80;9.70;;;;;;;20.54;51.89;97964.66;4920315;29;20333;-66
2021/11/11 02:00:23;;;;;;;11.20;10.10;;;;;;;20.28;51.92;97919.31;4950594;29;20543;-68
2021/11/11 02:02:57;;;;;;;12.07;10.43;;;;;;;20.67;52.05;98002.66;4950939;28;20220;-67
2021/11/11 02:05:25;;;;;;;11.57;10.00;;;;;;;20.40;52.28;97959.81;4952699;28;20207;-67
2021/11/11 02:07:51;;;;;;;10.67;9.67;;;;;;;20.67;52.37;98010.31;4951406;28;20250;-66
2021/11/11 02:10:18;;;;;;;10.87;9.80;;;;;;;20.66;52.42;98016.22;4952669;28;20710;-66
2021/11/11 02:12:45;;;;;;;10.47;9.47;;;;;;;20.39;52.24;97970.81;4951438;29;20238;-69
2021/11/11 02:15:12;;;;;;;9.87;8.87;;;;;;;20.67;52.08;98022.19;4936307;29;20197;-66
2021/11/11 02:17:39;;;;;;;10.43;9.43;;;;;;;20.66;51.86;98012.81;4951306;28;20315;-69
2021/11/11 02:20:11;;;;;;;10.37;9.27;;;;;;;20.67;51.92;98009.44;4954881;28;20238;-69
2021/11/11 02:22:38;;;;;;;10.30;9.30;;;;;;;20.39;51.75;97960.59;4952365;29;20247;-66
2021/11/11 02:25:12;;;;;;;10.57;8.57;;;;;;;20.66;51.79;98002.59;4951856;29;20234;-66
2021/11/11 02:27:39;;;;;;;9.83;8.93;;;;;;;19.66;51.41;97839.34;4952953;28;20310;-68
2021/11/11 02:30:07;;;;;;;10.23;9.27;;;;;;;20.44;51.74;97969.31;4953156;29;20232;-66
2021/11/11 02:32:33;;;;;;;8.97;8.17;;;;;;;20.35;51.68;97959.63;4921508;29;20215;-66
2021/11/11 02:35:00;;;;;;;10.47;9.37;;;;;;;20.58;51.53;98006.50;4967518;28;20196;-66
2021/11/11 02:37:27;;;;;;;10.20;9.20;;;;;;;20.63;51.37;98013.53;4952248;29;20255;-69
2021/11/11 02:39:54;;;;;;;9.63;8.73;;;;;;;20.60;51.29;98000.63;4968040;28;20246;-66
2021/11/11 02:42:21;;;;;;;9.53;8.63;;;;;;;20.65;51.71;97999.16;4954072;28;20267;-67
2021/11/11 02:44:47;;;;;;;10.47;9.00;;;;;;;20.66;51.63;97994.94;4952677;28;20642;-67
2021/11/11 02:47:14;;;;;;;9.87;8.87;;;;;;;20.56;52.18;97977.47;4946330;28;20592;-66
2021/11/11 02:49:41;;;;;;;9.73;8.83;;;;;;;20.59;52.01;97996.34;4967693;28;20200;-64
2021/11/11 02:52:08;;;;;;;9.60;8.70;;;;;;;20.66;52.18;98008.53;4948408;28;20266;-68
2021/11/11 02:54:38;;;;;;;8.77;8.00;;;;;;;20.64;52.12;98002.53;4951214;29;20224;-65
2021/11/11 02:57:22;;;;;;;9.57;8.67;;;;;;;20.47;52.10;97966.88;4945896;29;20259;-66
2021/11/11 02:59:50;;;;;;;9.43;8.53;;;;;;;20.65;52.05;97991.50;4950135;28;20327;-66
2021/11/11 03:02:27;;;;;;;9.13;8.23;;;;;;;20.46;51.74;97966.00;4951867;29;20231;-66
2021/11/11 03:04:55;;;;;;;8.70;7.90;;;;;;;20.65;51.78;97996.59;4950176;29;20662;-69
2021/11/11 03:07:22;;;;;;;9.20;8.30;;;;;;;19.69;51.79;97826.72;4952535;29;20271;-66
2021/11/11 03:09:49;;;;;;;9.37;8.47;;;;;;;20.64;51.71;97999.97;4952670;28;20865;-67
2021/11/11 03:12:16;;;;;;;8.83;8.03;;;;;;;20.65;51.95;98001.72;4953224;28;20283;-66
2021/11/11 03:14:44;;;;;;;9.40;8.50;;;;;;;20.49;51.84;97975.50;4966519;28;20200;-67
2021/11/11 03:17:11;;;;;;;9.10;8.27;;;;;;;20.64;51.86;97993.97;4951352;29;20240;-66
2021/11/11 03:19:37;;;;;;;9.20;8.30;;;;;;;20.61;51.83;97994.75;4952833;28;20204;-68
2021/11/11 03:22:06;;;;;;;9.40;8.50;;;;;;;20.64;51.60;97997.41;4952636;29;20672;-65
2021/11/11 03:24:33;;;;;;;9.13;8.23;;;;;;;20.65;51.63;98000.81;4942527;28;20224;-67
2021/11/11 03:27:00;;;;;;;8.30;7.50;;;;;;;20.58;51.91;97983.53;4951627;29;20678;-68
2021/11/11 03:29:27;;;;;;;9.30;8.40;;;;;;;20.65;51.77;97991.50;4951172;29;20250;-66
2021/11/11 03:31:54;;;;;;;9.53;8.63;;;;;;;20.66;52.27;97989.81;4950027;29;20201;-69
2021/11/11 03:34:23;;;;;;;8.57;7.73;;;;;;;20.43;52.03;97953.13;4963493;28;20267;-68
2021/11/11 03:36:50;;;;;;;9.43;8.47;;;;;;;20.65;52.30;97994.03;4967251;28;20232;-66
2021/11/11 03:39:17;;;;;;;8.77;7.97;;;;;;;20.52;52.37;97973.06;4950382;29;20235;-66
2021/11/11 03:41:48;;;;;;;8.97;8.10;;;;;;;20.33;52.37;97948.47;4950727;29;20599;-67
2021/11/11 03:44:18;;;;;;;8.60;7.80;;;;;;;20.57;52.30;97984.34;4935081;29;20251;-69
2021/11/11 03:46:46;;;;;;;8.90;8.00;;;;;;;20.33;52.09;97942.47;4934762;29;20247;-69
2021/11/11 03:49:13;;;;;;;8.73;7.93;;;;;;;20.25;51.92;97933.66;4950446;29;20192;-67
2021/11/11 03:51:40;;;;;;;9.30;8.40;;;;;;;20.01;52.26;97884.16;4949693;29;20314;-67
2021/11/11 03:54:07;;;;;;;9.33;8.43;;;;;;;20.53;51.80;97970.56;4959694;28;20227;-66
2021/11/11 03:56:34;;;;;;;8.47;7.67;;;;;;;19.81;51.80;97852.72;4930625;29;20288;-69
2021/11/11 03:59:01;;;;;;;8.03;7.30;;;;;;;20.35;51.50;97943.41;4949840;29;20232;-68
2021/11/11 04:01:28;;;;;;;8.43;7.63;;;;;;;20.64;51.85;98005.09;4948962;29;20778;-69
2021/11/11 04:03:55;;;;;;;8.33;7.63;;;;;;;20.64;51.74;98004.19;4952495;28;20223;-67
2021/11/11 04:06:21;;;;;;;8.27;7.47;;;;;;;20.63;51.79;98005.88;4954744;29;20255;-67
2021/11/11 04:08:48;;;;;;;7.60;6.90;;;;;;;20.62;51.90;98005.81;4951901;28;20252;-69
2021/11/11 04:11:14;;;;;;;8.10;7.40;;;;;;;20.62;52.24;98004.13;4971094;28;20224;-69
2021/11/11 04:13:41;;;;;;;8.20;7.40;;;;;;;20.64;52.07;98007.63;4951473;28;20621;-67
2021/11/11 04:16:08;;;;;;;8.50;7.70;;;;;;;20.33;52.19;97953.56;4948917;29;20197;-67
2021/11/11 04:18:34;;;;;;;9.20;8.27;;;;;;;20.52;52.28;97989.22;4954167;29;20250;-67
2021/11/11 04:21:01;;;;;;;9.23;8.33;;;;;;;20.48;52.27;97989.03;4954948;28;20259;-69
2021/11/11 04:23:28;;;;;;;7.90;7.20;;;;;;;20.64;52.28;98027.19;4939231;29;20299;-67
2021/11/11 04:28:54;;;;;;;8.60;7.80;;;;;;;20.63;52.14;98018.63;4955285;29;20255;-68
2021/11/11 04:34:01;;;;;;;7.70;7.00;;;;;;;20.62;52.00;98019.47;4955611;28;20223;-72
2021/11/11 04:42:12;;;;;;;8.27;7.47;;;;;;;20.62;52.11;98016.03;4954019;29;20205;-66
2021/11/11 04:47:54;;;;;;;8.00;7.30;;;;;;;20.57;51.66;98013.28;4950856;29;20580;-66
2021/11/11 05:01:28;;;;;;;7.87;7.07;;;;;;;20.62;51.81;98024.56;4952278;29;20235;-68
2021/11/11 05:03:55;;;;;;;7.33;6.63;;;;;;;20.62;52.13;98009.25;4955369;28;20208;-68
2021/11/11 05:06:22;;;;;;;8.37;7.57;;;;;;;20.60;52.39;98012.56;4969074;28;20838;-67
2021/11/11 05:08:48;;;;;;;7.53;6.83;;;;;;;20.61;52.08;98020.28;4937099;29;20295;-67
2021/11/11 05:11:16;;;;;;;8.27;7.53;;;;;;;20.61;52.15;98020.28;4954817;28;20220;-65
2021/11/11 05:13:42;;;;;;;8.13;7.40;;;;;;;20.61;51.86;98021.94;4952764;29;20192;-69
2021/11/11 05:16:09;;;;;;;7.67;7.03;;;;;;;20.44;51.96;97993.19;4965543;28;20231;-66
2021/11/11 05:18:36;;;;;;;7.53;6.90;;;;;;;20.30;51.83;97958.53;4936372;29;20228;-66
2021/11/11 05:21:02;;;;;;;7.73;7.03;;;;;;;20.60;51.70;98010.84;4969458;28;20236;-68
2021/11/11 05:23:29;;;;;;;7.87;7.17;;;;;;;20.60;51.72;98013.41;4954954;28;20244;-69
2021/11/11 05:25:55;;;;;;;6.47;5.97;;;;;;;20.52;51.62;98006.25;4968659;28;20610;-66
2021/11/11 05:28:22;;;;;;;7.43;6.73;;;;;;;20.61;51.46;98016.84;4952541;29;20244;-67
2021/11/11 05:30:49;;;;;;;7.37;6.67;;;;;;;20.61;51.55;98017.72;4953511;29;20713;-69
2021/11/11 05:33:16;;;;;;;7.70;6.93;;;;;;;20.60;51.52;98028.72;4949309;28;20234;-69
2021/11/11 05:35:42;;;;;;;7.07;6.47;;;;;;;20.61;51.71;98027.06;4953731;29;20728;-67
2021/11/11 05:38:14;;;;;;;7.27;6.67;;;;;;;19.35;51.31;97818.44;4954295;28;20223;-67
2021/11/11 05:40:41;;;;;;;7.47;6.77;;;;;;;20.50;51.75;98015.53;4954670;29;20282;-70
2021/11/11 05:43:07;;;;;;;6.93;6.33;;;;;;;20.59;51.85;98031.22;4945149;29;20295;-66
2021/11/11 05:45:34;;;;;;;7.20;6.60;;;;;;;20.62;52.17;98045.00;4950580;28;20227;-68
2021/11/11 05:48:01;;;;;;;6.97;6.37;;;;;;;20.54;52.37;98036.13;4952882;29;20271;-68
2021/11/11 05:50:27;;;;;;;6.90;6.30;;;;;;;20.55;52.27;98043.00;4952979;29;20259;-66
2021/11/11 05:52:54;;;;;;;7.27;6.57;;;;;;;20.62;52.03;98057.78;4952545;29;20207;-66
2021/11/11 05:55:20;;;;;;;7.23;6.63;;;;;;;20.59;51.83;98054.19;4953216;29;20296;-69
2021/11/11 05:57:47;;;;;;;7.60;6.80;;;;;;;20.53;51.53;98046.28;4953892;28;20311;-70
2021/11/11 06:00:16;;;;;;;7.53;6.83;;;;;;;20.53;51.75;98053.94;4966048;28;20316;-66
2021/11/11 06:02:43;;;;;;;6.97;6.37;;;;;;;20.48;51.41;98048.66;4954464;28;20270;-67
2021/11/11 06:05:10;;;;;;;6.77;6.17;;;;;;;20.62;51.46;98070.53;4950413;29;20220;-66
2021/11/11 06:07:37;;;;;;;6.77;6.17;;;;;;;20.52;51.47;98060.72;4954486;28;20774;-67
2021/11/11 06:10:05;;;;;;;6.93;6.33;;;;;;;20.59;51.33;98079.75;4952385;28;20197;-69
2021/11/11 06:12:31;;;;;;;6.80;6.20;;;;;;;20.61;51.55;98089.22;4937634;29;20283;-67
2021/11/11 06:14:58;;;;;;;7.00;6.40;;;;;;;20.32;51.29;98030.09;4951389;29;20235;-67
2021/11/11 06:17:25;;;;;;;6.87;6.27;;;;;;;20.54;51.39;98061.69;4954530;28;20745;-68
2021/11/11 06:19:51;;;;;;;6.93;6.33;;;;;;;20.61;51.33;98076.47;4968970;28;20200;-67
2021/11/11 06:22:21;;;;;;;7.00;6.40;;;;;;;20.63;51.34;98081.63;4968768;28;20209;-68
2021/11/11 06:24:48;;;;;;;6.93;6.30;;;;;;;20.63;51.63;98082.47;4936032;29;20220;-67
2021/11/11 06:27:14;;;;;;;6.67;6.07;;;;;;;20.54;51.75;98064.22;4953421;28;20299;-69
2021/11/11 06:29:41;;;;;;;7.20;6.60;;;;;;;20.63;51.83;98079.94;4952105;29;20597;-70
2021/11/11 06:32:08;;;;;;;6.20;5.70;;;;;;;20.63;52.02;98089.28;4952208;29;20204;-65
2021/11/11 06:34:54;;;;;;;6.17;5.67;;;;;;;20.63;52.21;98087.59;4946195;29;20538;-67
2021/11/11 06:37:21;;;;;;;6.40;5.90;;;;;;;20.63;51.67;98096.97;4953778;28;20258;-66
2021/11/11 06:39:47;;;;;;;6.87;6.27;;;;;;;20.63;51.68;98099.50;4953229;29;20248;-67
2021/11/11 06:42:14;;;;;;;6.50;5.90;;;;;;;20.53;51.60;98080.38;4953687;28;20235;-68
2021/11/11 06:44:45;;;;;;;6.83;6.23;;;;;;;20.55;51.27;98077.88;4950855;29;20590;-67
2021/11/11 06:47:12;;;;;;;6.40;5.90;;;;;;;20.46;51.53;98075.78;4952141;29;20220;-70
2021/11/11 06:49:39;;;;;;;7.27;6.63;;;;;;;19.61;51.22;97930.06;4951983;29;20547;-67
2021/11/11 06:52:06;;;;;;;6.07;5.57;;;;;;;20.59;51.09;98093.41;4967855;28;20200;-68
2021/11/11 06:54:33;;;;;;;6.60;6.00;;;;;;;20.51;51.25;98081.97;4951276;29;20196;-68
2021/11/11 06:56:59;;;;;;;6.43;5.83;;;;;;;20.63;51.29;98102.91;4936060;29;20670;-67
2021/11/11 06:59:29;;;;;;;6.70;6.10;;;;;;;20.63;51.21;98102.06;4952980;28;20271;-69
2021/11/11 07:01:55;;;;;;;6.43;5.93;;;;;;;20.65;50.95;98110.66;4968697;28;20219;-68
2021/11/11 07:04:25;;;;;;;6.53;5.87;;;;;;;20.57;51.25;98087.34;4967112;28;20247;-67
2021/11/11 07:06:52;;;;;;;6.70;6.00;;;;;;;20.67;51.19;98101.38;4947569;29;20629;-70
2021/11/11 07:09:19;;;;;;;6.80;6.20;;;;;;;20.67;51.05;98093.72;4951873;29;20690;-67
2021/11/11 07:11:46;;;;;;;6.83;6.20;;;;;;;20.67;51.42;98088.59;4951391;28;20248;-69
2021/11/11 07:14:13;;;;;;;6.80;6.20;;;;;;;20.67;51.54;98101.38;4963759;28;20275;-67
2021/11/11 07:16:40;;;;;;;6.60;6.00;;;;;;;20.67;51.46;98098.81;4951810;28;20232;-69
2021/11/11 07:19:06;;;;;;;6.70;6.10;;;;;;;20.55;51.69;98067.66;4951957;28;20251;-69
2021/11/11 07:21:33;;;;;;;6.17;5.67;;;;;;;20.66;51.14;98087.72;4948996;29;20229;-67
2021/11/11 07:23:59;;;;;;;6.50;5.90;;;;;;;20.67;50.96;98086.94;4951163;29;20456;-67
2021/11/11 07:26:26;;;;;;;6.60;6.00;;;;;;;20.67;50.70;98086.06;4953037;29;20236;-69
2021/11/11 07:28:53;;;;;;;6.57;5.97;;;;;;;20.65;50.63;98087.66;4966809;28;20220;-70
2021/11/11 07:31:23;;;;;;;6.00;5.50;;;;;;;20.56;51.21;98069.41;4951014;29;20678;-67
2021/11/11 07:33:50;;;;;;;5.93;5.43;;;;;;;20.53;50.73;98076.94;4951360;28;20215;-67
2021/11/11 07:36:16;;;;;;;6.03;5.53;;;;;;;20.61;50.66;98089.22;4919731;29;20682;-70
2021/11/11 07:38:43;;;;;;;5.80;5.30;;;;;;;20.65;50.58;98100.44;4955006;28;20260;-67
2021/11/11 07:41:10;;;;;;;7.23;6.53;;;;;;;20.63;50.54;98092.69;4939018;29;20212;-67
2021/11/11 07:43:37;;;;;;;5.50;5.00;;;;;;;20.65;50.41;98093.66;4936442;29;20209;-67
2021/11/11 07:46:05;;;;;;;6.03;5.53;;;;;;;20.66;50.70;98097.09;4923444;29;20237;-67
2021/11/11 07:48:32;;;;;;;5.87;5.37;;;;;;;20.33;50.98;98042.03;4956350;29;20298;-66
2021/11/11 07:51:00;;;;;;;5.97;5.47;;;;;;;20.64;51.38;98101.25;4954632;29;20767;-67
2021/11/11 07:53:27;;;;;;;6.03;5.30;;;;;;;20.66;51.13;98104.75;4956366;29;20203;-69
2021/11/11 07:55:53;;;;;;;5.83;5.30;;;;;;;20.65;51.30;98106.41;4955364;28;20682;-67
2021/11/11 07:58:21;;;;;;;5.70;5.20;;;;;;;20.64;51.71;98102.13;4939206;29;20283;-68
2021/11/11 08:00:48;;;;;;;5.87;5.37;;;;;;;20.66;51.46;98104.75;4956184;28;20224;-65
2021/11/11 08:03:14;;;;;;;6.00;5.50;;;;;;;20.60;51.46;98095.13;4952504;29;20208;-68
2021/11/11 08:05:41;;;;;;;5.83;5.33;;;;;;;20.57;51.07;98083.94;4938491;29;20224;-68
2021/11/11 08:08:08;;;;;;;5.80;5.30;;;;;;;20.64;51.41;98096.13;4952006;29;20224;-67
2021/11/11 08:10:35;;;;;;;5.93;5.43;;;;;;;20.64;51.31;98114.00;4955407;29;20267;-67
2021/11/11 08:13:03;;;;;;;6.23;5.63;;;;;;;20.63;51.03;98120.78;4955148;29;20205;-67
2021/11/11 08:15:30;;;;;;;6.23;5.63;;;;;;;20.46;50.99;98074.94;4954728;28;20227;-70
2021/11/11 08:17:58;;;;;;;5.70;5.20;;;;;;;20.56;50.87;98110.25;4966943;28;20247;-67
2021/11/11 08:20:25;;;;;;;5.60;5.10;;;;;;;20.59;50.95;98113.81;4940208;29;20197;-68
2021/11/11 08:22:51;;;;;;;5.77;5.27;;;;;;;20.61;50.68;98104.56;4970682;28;20223;-70
2021/11/11 08:25:19;;;;;;;5.50;5.00;;;;;;;20.63;50.86;98104.63;4954140;29;20319;-70
2021/11/11 08:27:46;;;;;;;6.00;5.50;;;;;;;20.48;50.96;98091.19;4955590;28;20228;-68
2021/11/11 08:30:14;;;;;;;5.63;5.10;;;;;;;20.39;51.28;98078.03;4953261;29;20201;-67
2021/11/11 08:32:43;;;;;;;5.43;4.93;;;;;;;20.59;51.46;98121.47;4970553;28;20192;-67
2021/11/11 08:35:10;;;;;;;5.47;4.97;;;;;;;20.63;51.41;98128.47;4952525;28;20240;-66
2021/11/11 08:37:38;;;;;;;6.63;5.70;;;;;;;20.61;51.72;98119.88;4968963;28;20212;-69
2021/11/11 08:40:05;;;;;;;6.10;5.60;;;;;;;20.65;51.73;98123.41;4951390;28;20232;-68
2021/11/11 08:42:32;;;;;;;6.10;5.50;;;;;;;20.57;51.81;98096.69;4955059;28;20200;-67
2021/11/11 08:44:59;;;;;;;6.80;5.57;;;;;;;20.66;51.26;98122.63;4954620;28;20720;-69
2021/11/11 08:47:25;;;;;;;5.57;5.07;;;;;;;20.66;51.64;98112.41;4970714;28;20254;-67
2021/11/11 08:49:52;;;;;;;6.97;5.30;;;;;;;20.66;51.79;98109.84;4966614;28;20283;-68
2021/11/11 08:52:19;;;;;;;5.60;5.10;;;;;;;20.49;51.89;98073.38;4947584;29;20279;-68
2021/11/11 08:54:46;;;;;;;5.40;5.00;;;;;;;20.59;51.61;98092.50;4937260;29;20224;-70
2021/11/11 08:57:13;;;;;;;5.63;5.13;;;;;;;20.61;51.74;98094.34;4954811;29;20255;-67
2021/11/11 08:59:55;;;;;;;5.27;4.87;;;;;;;20.68;52.04;98106.53;4955588;29;20192;-66
2021/11/11 09:02:22;;;;;;;5.77;5.17;;;;;;;20.68;51.65;98104.00;4954528;28;20232;-70
2021/11/11 09:04:49;;;;;;;5.53;5.03;;;;;;;20.69;51.67;98102.31;4960884;28;20630;-67
2021/11/11 09:07:16;;;;;;;5.17;4.67;;;;;;;20.61;51.77;98089.22;4962605;28;20251;-69
2021/11/11 09:09:44;;;;;;;5.13;4.73;;;;;;;20.46;51.83;98057.91;4941184;29;20207;-69
2021/11/11 09:12:11;;;;;;;4.83;4.43;;;;;;;20.58;51.94;98078.91;4938326;29;20200;-67
2021/11/11 09:14:37;;;;;;;5.27;4.50;;;;;;;20.71;51.87;98101.56;4953695;29;20238;-68
2021/11/11 09:17:05;;;;;;;7.07;5.03;;;;;;;20.71;51.85;98104.13;4954678;29;20716;-70
2021/11/11 09:19:31;;;;;;;5.30;4.80;;;;;;;20.72;51.45;98116.06;4955120;29;20204;-67
2021/11/11 09:21:58;;;;;;;6.97;5.20;;;;;;;20.71;51.77;98111.78;4953126;29;20425;-69
2021/11/11 09:24:24;;;;;;;5.83;5.33;;;;;;;20.73;51.35;98124.63;4949495;29;20216;-67
2021/11/11 09:26:51;;;;;;;11.40;9.23;;;;;;;20.50;51.18;98092.13;4955317;28;20200;-71
2021/11/11 09:29:18;;;;;;;10.77;9.37;;;;;;;20.63;49.99;98119.94;4953908;29;20279;-67
2021/11/11 09:31:44;;;;;;;11.23;10.13;;;;;;;20.70;49.75;98133.03;4969428;28;20201;-69
2021/11/11 09:34:11;;;;;;;15.33;11.53;;;;;;;20.64;48.99;98117.44;4954214;29;20196;-67
2021/11/11 09:36:38;;;;;;;13.30;11.60;;;;;;;20.61;48.69;98111.34;4937666;29;20728;-69
2021/11/11 09:39:05;;;;;;;14.30;11.73;;;;;;;20.62;48.09;98121.63;4955188;29;20247;-67
2021/11/11 09:41:32;;;;;;;19.07;11.63;;;;;;;20.66;48.38;98125.19;4967252;28;20219;-70
2021/11/11 09:43:59;;;;;;;12.80;11.03;;;;;;;20.66;49.13;98117.53;4936467;29;20212;-66
2021/11/11 09:46:25;;;;;;;15.90;11.90;;;;;;;20.66;49.45;98130.28;4951219;29;20259;-68
2021/11/11 09:48:52;;;;;;;12.37;10.70;;;;;;;20.65;49.83;98124.28;4950960;28;20220;-68
2021/11/11 09:51:21;;;;;;;12.13;10.30;;;;;;;20.65;50.10;98119.19;4951189;29;20661;-67
2021/11/11 09:59:21;;;;;;;10.93;9.83;;;;;;;20.66;50.41;98125.19;5088732;23;20265;-66
2021/11/11 10:01:48;;;;;;;14.67;12.10;;;;;;;20.55;49.75;98105.97;4993653;28;20203;-67
2021/11/11 10:04:15;;;;;;;14.60;11.30;;;;;;;20.23;48.93;98067.97;5000221;28;20190;-67
2021/11/11 10:06:41;;;;;;;14.23;11.10;;;;;;;20.58;49.06;98135.06;4978128;28;20252;-69
2021/11/11 10:09:19;;;;;;;12.97;11.23;;;;;;;20.56;49.21;98135.78;5010407;28;20293;-68
2021/11/11 10:11:50;;;;;;;13.80;11.17;;;;;;;20.59;49.22;98153.78;5007428;28;20741;-67
2021/11/11 10:14:27;;;;;;;12.17;10.67;;;;;;;20.63;49.75;98143.78;4962077;28;20210;-65
2021/11/11 10:16:54;;;;;;;11.60;10.40;;;;;;;20.63;49.90;98140.38;5011294;28;20222;-67
2021/11/11 10:19:21;;;;;;;12.20;9.30;;;;;;;20.62;50.34;98142.03;4989534;28;20440;-67
2021/11/11 10:22:02;;;;;;;11.03;9.80;;;;;;;20.63;50.84;98143.78;4960142;28;20206;-67
2021/11/11 10:24:45;;;;;;;10.27;8.63;;;;;;;20.63;50.85;98141.22;5003194;28;20592;-68
2021/11/11 10:30:05;;;;;;;9.43;8.50;;;;;;;20.62;51.42;98136.94;4990377;28;20206;-66
2021/11/11 10:32:37;;;;;;;13.60;8.77;;;;;;;19.82;51.27;98003.25;5009233;28;20582;-66
2021/11/11 10:35:09;;;;;;;9.53;8.47;;;;;;;20.62;51.64;98144.59;5006122;28;20218;-68
2021/11/11 10:37:51;;;;;;;9.10;8.20;;;;;;;20.62;51.78;98144.59;4992119;28;20257;-67
2021/11/11 10:40:19;;;;;;;9.20;7.97;;;;;;;20.63;51.71;98138.66;5006876;28;20233;-67
2021/11/11 10:42:47;;;;;;;9.07;8.13;;;;;;;20.54;51.58;98112.75;5008165;28;20633;-68
2021/11/11 10:45:16;;;;;;;9.50;8.13;;;;;;;20.55;51.86;98122.19;4992222;28;20218;-67
2021/11/11 10:47:44;;;;;;;13.57;8.00;;;;;;;20.60;52.07;98124.94;5007748;28;20249;-66
2021/11/11 10:50:13;;;;;;;9.43;8.00;;;;;;;20.56;52.37;98111.13;4991942;28;20746;-66
2021/11/11 10:52:45;;;;;;;11.90;9.30;;;;;;;20.39;52.42;98090.78;4973403;28;20528;-68
2021/11/11 10:55:14;;;;;;;14.57;8.63;;;;;;;20.65;52.70;98124.28;4956784;28;20285;-67
2021/11/11 10:57:44;;;;;;;9.63;8.00;;;;;;;20.67;52.06;98129.47;4995299;28;20301;-66
2021/11/11 11:00:23;;;;;;;9.87;8.70;;;;;;;20.55;52.42;98103.41;4991668;28;20245;-66
2021/11/11 11:02:54;;;;;;;9.33;8.37;;;;;;;20.67;52.45;98120.13;4989998;28;20650;-65
2021/11/11 11:05:23;;;;;;;10.33;8.57;;;;;;;20.19;52.55;98036.34;5007320;28;20301;-67
2021/11/11 11:07:56;;;;;;;14.60;8.53;;;;;;;20.64;52.56;98119.13;4976334;28;20218;-67
2021/11/11 11:10:22;;;;;;;16.70;11.47;;;;;;;20.68;54.84;98115.88;5009826;28;20624;-67
2021/11/11 11:12:49;;;;;;;14.03;10.70;;;;;;;20.70;55.83;98127.94;5009945;28;20283;-66
2021/11/11 11:15:36;;;;;;;12.13;10.67;;;;;;;20.71;56.84;98123.66;5008049;28;20237;-68
2021/11/11 11:18:03;;;;;;;13.30;10.60;;;;;;;20.54;58.32;98091.47;5007767;28;20249;-66
2021/11/11 11:20:30;;;;;;;12.03;10.50;;;;;;;20.02;59.87;98013.44;4974437;28;20211;-67
2021/11/11 11:23:09;;;;;;;13.93;10.10;;;;;;;20.72;60.24;98130.53;4958083;28;20195;-66
2021/11/11 11:25:37;;;;;;;15.70;9.97;;;;;;;20.27;58.77;98042.66;5009869;28;20256;-66
2021/11/11 11:28:30;;;;;;;12.80;9.23;;;;;;;20.73;57.62;98116.94;4986348;28;20229;-67
2021/11/11 11:30:59;;;;;;;14.60;9.17;;;;;;;20.68;57.17;98106.53;5007243;28;20229;-67
2021/11/11 11:33:33;;;;;;;11.83;9.53;;;;;;;20.61;57.55;98085.78;4989793;28;20202;-68
2021/11/11 11:35:59;;;;;;;11.03;9.50;;;;;;;20.68;57.05;98098.00;4993446;28;20252;-66
2021/11/11 11:38:27;;;;;;;16.30;9.50;;;;;;;19.71;56.79;97938.16;4992618;28;20242;-69
2021/11/11 11:40:56;;;;;;;14.80;9.40;;;;;;;20.57;56.59;98078.81;4989834;28;20206;-67
2021/11/11 11:43:33;;;;;;;10.90;8.77;;;;;;;20.24;56.54;98022.09;5007749;28;20198;-67
2021/11/11 11:46:17;;;;;;;9.83;8.83;;;;;;;20.70;56.25;98102.38;4989210;28;20221;-67
2021/11/11 11:48:44;;;;;;;11.67;9.27;;;;;;;20.44;55.75;98062.13;4996796;28;20217;-67
2021/11/11 11:51:12;;;;;;;11.83;9.07;;;;;;;20.70;55.53;98116.81;4990690;28;20218;-67
2021/11/11 11:56:27;;;;;;;12.40;9.10;;;;;;;20.69;54.92;98103.16;4993789;28;20628;-67
2021/11/11 11:59:04;;;;;;;13.57;9.37;;;;;;;20.62;54.88;98087.53;5009364;28;20230;-68
2021/11/11 12:04:39;;;;;;;11.90;9.23;;;;;;;20.68;55.11;98088.66;5003501;28;20198;-68
2021/11/11 12:07:14;;;;;;;11.50;9.13;;;;;;;20.69;54.77;98090.41;4991983;28;20216;-67
2021/11/11 12:14:58;;;;;;;10.80;9.10;;;;;;;20.68;54.34;98098.88;4991495;28;20252;-69
2021/11/11 12:40:30;;;;;;;9.87;8.87;;;;;;;20.67;53.82;98073.28;5009794;28;20687;-67